Tiempo atmosférico en la estación meteorológica de Puebla De Don Rodrigo, Ciudad Real (485 m.)



Fecha
DESCASC
Temp. máxima en grados centígrados (hora)
DESCASC
Temp. mínima en grados centígrados (hora)
DESCASC
Temp. media en grados centígrados
DESCASC
Racha de viento máxima en m/sg (hora)
DESCASC
Velocidad máxima media en intervalos de 10 minutos(hora)
DESCASC
Precipitaciones diarias en mm
DESCASC
Precipitaciones de 00:00 a 06:00 en mm
DESCASC
Precipitaciones de 06:00 a 12:00 en mm
DESCASC
Precipitaciones de 12:00 a 18:00 en mm
DESCASC
Precipitaciones de 18:00 a 24:00 en mm
DESCASC
18-08-2019 36.8 (17:00) 17.8 (07:40) 27.3 11.94 (15:10) 5 (15:40) -- -- 0 0 0
17-08-2019 40.5 (17:40) 18.7 (07:30) 29.6 10 (14:20) 4.17 (14:00) -- -- -- -- --
16-08-2019 39.5 (17:00) 18.2 (07:30) 28.9 9.17 (12:00) 4.17 (14:20) -- -- -- -- --
15-08-2019 39.5 (16:30) 16.1 (00:00) 27.8 8.33 (18:40) 3.61 (18:40) -- -- -- -- --
14-08-2019 37.4 (17:10) 13.5 (00:00) 25.5 7.22 (17:50) 3.06 (16:10) -- -- -- -- --
13-08-2019 35.2 (17:30) 14.6 (00:00) 24.9 5 (16:50) 2.22 (14:50) -- -- -- -- --
12-08-2019 31.8 (16:30) 11.7 (00:00) 21.7 7.22 (14:30) 3.33 (13:40) -- -- -- -- --
11-08-2019 31.2 (14:50) 17.7 (00:00) 24.5 9.72 (14:10) 3.61 (18:40) -- -- -- -- --
10-08-2019 34.5 (17:10) 18.9 (00:00) 26.7 7.22 (16:00) 3.33 (16:00) -- -- -- -- --
09-08-2019 34.7 (16:30) 21 (00:00) 27.9 8.33 (15:30) 3.61 (16:00) -- -- -- -- --
08-08-2019 37 (17:10) 16.5 (00:00) 26.8 8.33 (16:50) 4.72 (15:00) -- -- -- -- --
07-08-2019 32.1 (14:00) 20.8 (00:00) 26.4 6.67 (14:00) 2.5 (12:20) -- -- -- -- --
06-08-2019 37.5 (17:10) 16.7 (00:00) 27.1 9.72 (17:20) 3.61 (11:50) -- -- -- -- --
05-08-2019 38.4 (16:40) 17 (00:00) 27.7 8.06 (15:30) 3.61 (15:30) -- -- -- -- --
04-08-2019 37.8 (16:50) 17.5 (00:00) 27.6 7.78 (15:10) 3.89 (17:20) -- -- -- -- --
03-08-2019 38.9 (14:40) 16 (00:00) 27.5 10 (16:20) 4.44 (16:20) -- -- -- -- --
02-08-2019 38.6 (17:30) 16.6 (00:00) 27.6 6.94 (14:20) 2.78 (16:30) -- -- -- -- --
01-08-2019 36.9 (16:50) 20.6 (00:00) 28.8 8.33 (13:40) 3.33 (13:50) -- -- -- -- --
31-07-2019 39.1 (17:10) 15 (00:00) 27 7.22 (15:40) 3.33 (18:20) -- -- -- -- --
30-07-2019 35.2 (17:20) 15.5 (00:00) 25.4 7.22 (14:10) 2.22 (14:10) -- -- -- -- --
29-07-2019 35.1 (16:10) 17.1 (00:00) 26.1 14.44 (17:00) 3.89 (14:00) -- -- -- -- --
28-07-2019 33.6 (17:00) 15.7 (00:00) 24.6 10.28 (15:30) 2.22 (14:10) -- -- -- -- --
27-07-2019 27.7 (15:10) 15.3 (00:00) 21.5 10 (14:40) 3.33 (15:10) -- -- -- -- --
26-07-2019 31.9 (16:40) 21 (00:00) 26.4 11.11 (13:50) 4.44 (15:00) -- -- -- -- --
25-07-2019 38.9 (16:30) 21.7 (00:00) 30.3 10 (18:20) 5 (13:30) -- -- -- -- --
24-07-2019 39.4 (16:20) 20.8 (00:00) 30.1 9.72 (16:10) 4.44 (00:10) -- -- -- -- --

Gráficas

Temp. máximas Temp. mínimas Temp. medias Precipitaciones Rachas de viento máximas Velocidades máximas media en intervalos de 10 minutos

Datos horarios

Fecha y hora oficial Temperatura (ºC) Velocidad del viento (km/h) Dirección del viento Racha (km/h) Dirección de racha Precipitación (mm) Presión (hPa) Tendencia (hPa) Humedad (%)
2019-08-22 23:00:00 27.7 0 Calma 8 Este 0 956.3 1.4 30
2019-08-22 22:00:00 28.5 2 Este 13 Este 0 956 0.6 29
2019-08-22 21:00:00 30.6 7 Este 17 Este 0 955.5 -0.1 27
2019-08-22 20:00:00 31.6 6 Sudeste 20 Este 0 954.9 -0.7 26
2019-08-22 19:00:00 33.1 9 Sudeste 23 Sur 0 955.4 -1 26
2019-08-22 18:00:00 34.1 11 Sur 27 Este 0 955.6 -1.4 25
2019-08-22 17:00:00 35 10 Sudeste 31 Este 0 955.6 -1.7 26
2019-08-22 16:00:00 34.7 9 Este 34 Sudeste 0 956.4 -1.8 27
2019-08-22 15:00:00 33.3 17 Nordeste 36 Sudeste 0 957 -1 30
2019-08-22 14:00:00 32.6 10 Este 29 Nordeste 0 957.3 -1.5 32
2019-08-22 13:00:00 31.4 10 Este 27 Sudeste 0 958.2 -0.4 36
2019-08-22 12:00:00 29.5 10 Este 28 Este 0 958 -0.6 43
2019-08-22 11:00:00 27.2 6 Sudeste 19 Sudeste 0 958.8 0.4 54
2019-08-22 10:00:00 24.7 0 Calma 15 Sudeste 0 958.6 0.7 62
2019-08-22 09:00:00 21.6 0 Calma 11 Sudeste 0 958.6 1.5 74
2019-08-22 08:00:00 18.6 0 Calma -- -- 0 958.4 0.9 85
2019-08-22 07:00:00 18.4 0 Calma -- -- 0 957.9 0.1 85
2019-08-22 06:00:00 18.5 0 Calma -- -- 0 957.1 -0.7 84
2019-08-22 05:00:00 20.4 0 Calma 11 Nordeste 0 957.5 -0.8 77
2019-08-22 04:00:00 20.9 6 Sudeste 16 Este 0 957.8 -0.4 76
2019-08-22 03:00:00 21.6 4 Sudeste 21 Sudeste 0 957.8 0.2 74
2019-08-22 02:00:00 22.1 8 Este 39 Este 0 958.3 1.2 75
2019-08-22 01:00:00 23.2 22 Este 34 Este 0 958.2 1.9 70
2019-08-22 00:00:00 24.9 8 Este 29 Sudeste 0 957.6 2 60
2019-08-21 23:00:00 25.6 8 Sudeste 21 Este 0 957.1 2.1 57
2019-08-21 22:00:00 27.2 9 Sudeste 21 Sudeste 0 956.3 1.6 47
2019-08-21 21:00:00 28.6 6 Este 17 Nordeste 0 955.6 1.1 36
2019-08-21 20:00:00 30.2 4 Norte 17 Norte 0 955 0.1 33
2019-08-21 19:00:00 31.1 3 Norte 20 Norte 0 954.7 -0.6 33
2019-08-21 18:00:00 32.5 7 Norte 32 Norte 0 954.5 -1.3 31
2019-08-21 17:00:00 35.1 5 Oeste 38 Oeste 0 954.9 -1.5 26
2019-08-21 16:00:00 33.8 0 Calma 21 Sudoeste 0 955.3 -1.5 31
2019-08-21 15:00:00 32.7 5 Este 19 Este 0 955.8 -1.5 34
2019-08-21 14:00:00 32.3 0 Calma 14 Oeste 0 956.4 -1.1 38
2019-08-21 13:00:00 29.1 3 Sudeste 18 Sur 0 956.8 -0.6 43
2019-08-21 12:00:00 28.8 6 Sur 18 Sudeste 0 957.3 0.1 45
2019-08-21 11:00:00 28.3 5 Sur 16 Sudoeste 0 957.5 0.7 51
2019-08-21 10:00:00 25.9 0 Calma -- -- -- 957.4 1.2 60
2019-08-21 09:00:00 23.3 0 Calma -- -- 0 957.2 1.1 74
2019-08-21 08:00:00 20.8 0 Calma -- -- 0 956.8 1.1 85
2019-08-21 07:00:00 20.6 0 Calma -- -- 0 956.2 0.3 85
2019-08-21 06:00:00 20.9 0 Calma -- -- 0 956.1 0.2 83
2019-08-21 05:00:00 21.5 0 Calma 0 Calma 0 955.7 0 82
2019-08-21 04:00:00 21.6 0 Calma 17 Este 0 955.9 0.3 77
2019-08-21 03:00:00 22.4 3 Este 20 Este 0 955.9 0.7 73
2019-08-21 02:00:00 23.3 2 Este 19 Nordeste 0 955.7 0.6 70
2019-08-21 01:00:00 24.9 8 Este 40 Nordeste 0 955.6 0.7 60
2019-08-21 00:00:00 26.1 0 Calma 9 Oeste 0 955.2 1.3 37
2019-08-20 23:00:00 25.9 4 Sudoeste 8 Sudoeste 0 955.1 1.5 32
2019-08-20 22:00:00 27.5 0 Calma 14 Sudoeste 0 954.9 1.7 30
2019-08-20 21:00:00 29.9 6 Sudoeste 17 Sudoeste 0 953.9 0.1 27
2019-08-20 20:00:00 31.8 9 Sudoeste 15 Sudoeste 0 953.6 -0.4 26
2019-08-20 19:00:00 33.5 0 Calma 14 Oeste 0 953.2 -1.1 26
2019-08-20 18:00:00 35 5 Oeste 17 Este 0 953.8 -1 26
2019-08-20 17:00:00 34.5 2 Sur 15 Sudeste 0 954 -1.4 26
2019-08-20 16:00:00 34.7 0 Calma 17 Sudeste 0 954.3 -1.1 28
2019-08-20 15:00:00 34.6 4 Sudeste 19 Sudeste 0 954.8 -1.1 29
2019-08-20 14:00:00 31.8 3 Nordeste 17 Nordeste 0 955.4 -0.4 29
2019-08-20 13:00:00 31 4 Noroeste 17 Sudoeste 0 955.4 0.1 33
2019-08-20 12:00:00 30.2 0 Calma 4 Sur 0 955.9 1.2 37
2019-08-20 11:00:00 26.9 0 Calma 0 Calma 0 955.8 1.4 41
2019-08-20 10:00:00 25 0 Calma 0 Calma 0 955.3 1.4 45
2019-08-20 09:00:00 21.4 0 Calma 2 Sudoeste 0 954.7 1.2 50
2019-08-20 08:00:00 20.7 0 Calma 9 Sudoeste 0 954.4 0.8 49
2019-08-20 07:00:00 20.7 0 Calma 0 Calma 0 953.9 0.2 47
2019-08-20 06:00:00 21.7 0 Calma 0 Calma 0 953.5 0.1 43
2019-08-20 05:00:00 22.1 0 Calma 0 Calma 0 953.6 -0.2 42
2019-08-20 04:00:00 23 0 Calma -- -- 0 953.7 -0.3 40
2019-08-20 03:00:00 23.3 0 Calma 2 Oeste 0 953.4 -0.3 37
2019-08-20 02:00:00 23.7 0 Calma 0 Calma 0 953.8 0.3 36
2019-08-20 01:00:00 24.6 0 Calma 7 Oeste 0 954 0.9 36
2019-08-20 00:00:00 24.8 0 Calma 3 Sudoeste 0 953.7 1.3 37
2019-08-19 23:00:00 26.2 0 Calma 6 Sudoeste 0 953.5 1.2 35
2019-08-19 22:00:00 26.7 0 Calma 8 Noroeste 0 953.1 0.7 36
2019-08-19 21:00:00 28.3 0 Calma 15 Norte 0 952.4 -0.3 35
2019-08-19 20:00:00 30.3 2 Sudoeste 21 Noroeste 0 952.3 -0.7 32
2019-08-19 19:00:00 32 0 Calma 24 Noroeste 0 952.4 -1 34
2019-08-19 18:00:00 33.4 5 Oeste 29 Noroeste 0 952.7 -1.1 33
2019-08-19 17:00:00 34.4 7 Oeste 29 Oeste 0 953 -1 33
2019-08-19 16:00:00 34.4 7 Oeste 28 Sudoeste 0 953.4 -0.6 33
2019-08-19 15:00:00 33.4 8 Oeste 28 Sudoeste 0 953.8 -0.8 34
2019-08-19 14:00:00 33.4 6 Oeste 23 Sudoeste 0 954 -0.4 35
2019-08-19 13:00:00 31.2 3 Sudoeste 14 Sudoeste 0 954 -0.4 40
2019-08-19 12:00:00 29.4 0 Calma 2 Este 0 954.6 0 46
2019-08-19 11:00:00 28 0 Calma 5 Nordeste 0 954.4 -- 56
2019-08-19 10:00:00 24.5 0 Calma 0 Calma 0 954.4 -- 63
2019-08-19 09:00:00 22.8 0 Calma -- -- -- 954.6 -- 65
2019-08-19 08:00:00 -- -- -- -- -- -- -- -- --
2019-08-19 07:00:00 -- -- -- -- -- -- -- -- --
2019-08-19 06:00:00 -- -- -- -- -- -- -- -- --
2019-08-19 05:00:00 -- -- -- -- -- -- -- -- --
2019-08-19 04:00:00 -- -- -- -- -- -- -- -- --
2019-08-19 03:00:00 22.8 0 Calma -- -- 0 953.9 0.2 61
2019-08-19 02:00:00 23.4 0 Calma 18 Oeste 0 954.1 0.6 56
2019-08-19 01:00:00 25.4 5 Oeste 14 Oeste 0 954.1 1.3 50
2019-08-19 00:00:00 26.1 0 Calma 3 Noroeste 0 953.7 1.8 43
2019-08-18 23:00:00 26.2 0 Calma 6 Oeste 0 953.5 1.5 41
2019-08-18 22:00:00 27.3 0 Calma 9 Sudoeste 0 952.8 0.5 37
2019-08-18 21:00:00 29.1 0 Calma 18 Oeste 0 951.9 -0.7 30
2019-08-18 20:00:00 31.3 3 Oeste 22 Oeste 0 952 -0.5 27
2019-08-18 19:00:00 33.8 4 Oeste 25 Oeste 0 952.3 -0.6 25
2019-08-18 18:00:00 34.6 6 Oeste 30 Oeste 0 952.6 -0.4 25
2019-08-18 17:00:00 36.6 8 Oeste 30 Oeste 0 952.5 -0.6 27
2019-08-18 16:00:00 36.2 12 Sudoeste 43 Oeste 0 952.9 -0.7 29
2019-08-18 15:00:00 35.7 12 Oeste 33 Sudoeste 0 953 -0.7 28
2019-08-18 14:00:00 35.3 9 Sudoeste 31 Sudoeste 0 953.1 -0.7 29
2019-08-18 13:00:00 33.9 9 Sudoeste 25 Sudoeste 0 953.6 0.2 30
2019-08-18 12:00:00 33.7 0 Calma 17 Oeste 0 953.7 0.3 34
2019-08-18 11:00:00 30.2 4 Nordeste 12 Nordeste 0 953.8 1.1 37
2019-08-18 10:00:00 26.5 0 Calma 0 Calma 0 953.4 1 39
2019-08-18 09:00:00 23.1 0 Calma 0 Calma 0 953.4 1.2 43
2019-08-18 08:00:00 20.5 0 Calma -- -- 0 952.7 0.8 47
2019-08-18 07:00:00 18.7 0 Calma -- -- 0 952.4 0.4 46
2019-08-18 06:00:00 20.1 0 Calma -- -- 0 952.2 -0.5 43
2019-08-18 05:00:00 21.6 0 Calma -- -- 0 951.9 -0.9 40
2019-08-18 04:00:00 22.1 0 Calma 0 Calma 0 952 -0.8 38
2019-08-18 03:00:00 24.4 0 Calma -- -- 0 952.7 0 35
2019-08-18 02:00:00 24.8 0 Calma 9 Sudoeste 0 952.8 0.6 35
2019-08-18 01:00:00 27.9 8 Sudoeste 13 Oeste 0 952.8 0.7 31
2019-08-18 00:00:00 28.5 0 Calma -- -- 0 952.7 1.1 35
2019-08-17 23:00:00 29.2 0 Calma -- -- 0 952.2 1.1 35
2019-08-17 22:00:00 30.5 0 Calma 3 Sudoeste 0 952.1 0.5 34
2019-08-17 21:00:00 32.7 0 Calma 15 Oeste 0 951.6 -0.4 31
2019-08-17 20:00:00 35.2 4 Oeste 19 Oeste 0 951.1 -1.2 28
2019-08-17 19:00:00 37 0 Calma 21 Oeste 0 951.6 -1.4 26
2019-08-17 18:00:00 39.1 0 Calma 28 Sudoeste 0 952 -1.6 26
2019-08-17 17:00:00 38.2 5 Sudoeste 29 Oeste 0 952.3 -2 26
2019-08-17 16:00:00 38.9 7 Oeste 26 Sur 0 953 -1.9 27
2019-08-17 15:00:00 36.9 13 Sudoeste 36 Sudoeste 0 953.6 -1.6 29
2019-08-17 14:00:00 36.5 15 Sur 28 Sudoeste 0 954.3 -1.5 30
2019-08-17 13:00:00 35.6 8 Sur 23 Sudoeste 0 954.9 -0.9 32
2019-08-17 12:00:00 35 5 Sur 14 Sudeste 0 955.2 -0.7 34
2019-08-17 11:00:00 31.6 0 Calma 3 Este 0 955.8 0.3 39
2019-08-17 10:00:00 28.3 0 Calma -- -- 0 955.8 1 43
2019-08-17 09:00:00 23.4 0 Calma -- -- 0 955.9 1.3 48
2019-08-17 08:00:00 20.9 0 Calma -- -- 0 955.5 0.9 53
2019-08-17 07:00:00 20.4 0 Calma -- -- 0 954.8 0 53
2019-08-17 06:00:00 21.1 0 Calma -- -- 0 954.6 -0.3 50
2019-08-17 05:00:00 22.1 0 Calma -- -- 0 954.6 -0.4 46
2019-08-17 04:00:00 23 0 Calma 0 Calma 0 954.8 -0.3 45
2019-08-17 03:00:00 24.6 0 Calma 0 Calma 0 954.9 0.1 41
2019-08-17 02:00:00 25.3 0 Calma -- -- 0 955 0.3 39
2019-08-17 01:00:00 26.8 0 Calma -- -- 0 955.1 1.1 38
2019-08-17 00:00:00 27.1 0 Calma 0 Calma 0 954.8 0.9 37
2019-08-16 23:00:00 28.6 0 Calma 10 Sudoeste 0 954.7 1 35
2019-08-16 22:00:00 29.3 0 Calma 7 Sudoeste 0 954 0.3 30
2019-08-16 21:00:00 31.7 0 Calma 19 Oeste 0 953.9 0.4 28
2019-08-16 20:00:00 34.3 3 Oeste 23 Oeste 0 953.7 -0.4 28
2019-08-16 19:00:00 36.4 6 Oeste 28 Oeste 0 953.7 -1.2 28
2019-08-16 18:00:00 38.2 6 Oeste 24 Sudoeste 0 953.5 -1.8 28
2019-08-16 17:00:00 37.9 8 Oeste 27 Oeste 0 954.1 -1.6 27
2019-08-16 16:00:00 38.5 5 Sudoeste 28 Sudoeste 0 954.9 -1.1 28
2019-08-16 15:00:00 37.5 4 Sudoeste 33 Oeste 0 955.3 -1.2 29
2019-08-16 14:00:00 37.4 6 Oeste 28 Sudoeste 0 955.7 -0.7 30
2019-08-16 13:00:00 36.7 4 Oeste 19 Sudoeste 0 956 -0.6 31
2019-08-16 12:00:00 33.1 3 Sur 33 Sudeste 0 956.5 0 36
2019-08-16 11:00:00 30.8 2 Este 9 Nordeste 0 956.4 0.6 40
2019-08-16 10:00:00 27.7 0 Calma 4 Este 0 956.6 1.1 46
2019-08-16 09:00:00 22.6 0 Calma 6 Este 0 956.5 1.2 55
2019-08-16 08:00:00 20.3 0 Calma 0 Calma 0 955.8 0.7 61
2019-08-16 07:00:00 19.1 0 Calma -- -- 0 955.5 0.6 61
2019-08-16 06:00:00 20.6 0 Calma 5 Noroeste 0 955.3 0 59
2019-08-16 05:00:00 21.9 0 Calma 4 Nordeste 0 955.1 -0.2 54
2019-08-16 04:00:00 22.5 0 Calma 2 Nordeste 0 954.9 -0.8 51
2019-08-16 03:00:00 23.4 0 Calma -- -- 0 955.3 -0.6 47
2019-08-16 02:00:00 24.8 0 Calma 6 Sudoeste 0 955.3 -0.2 45
2019-08-16 01:00:00 27.2 2 Sudoeste 5 Sudoeste 0 955.7 0.5 41
2019-08-16 00:00:00 28.6 0 Calma 10 Oeste 0 955.9 1.1 39
2019-08-15 23:00:00 29.1 6 Oeste 11 Oeste 0 955.5 1.2 38
2019-08-15 22:00:00 30.7 0 Calma 13 Oeste 0 955.2 0.6 35
2019-08-15 21:00:00 32.4 4 Sudoeste 21 Sudoeste 0 954.8 0.3 32
2019-08-15 20:00:00 34.2 7 Sudoeste 18 Sudoeste 0 954.3 -0.9 28
2019-08-15 19:00:00 35.9 7 Sudoeste 30 Sudoeste 0 954.6 -0.8 28
2019-08-15 18:00:00 36.2 4 Oeste 22 Sudoeste 0 954.5 -0.8 26
2019-08-15 17:00:00 38.2 3 Noroeste 25 Oeste 0 955.2 -1.1 25
2019-08-15 16:00:00 38.1 0 Calma 23 Sudoeste 0 955.4 -1.5 25
2019-08-15 15:00:00 37.3 9 Sudoeste 26 Sudoeste 0 955.3 -2.2 25
2019-08-15 14:00:00 36.9 6 Este 17 Oeste 0 956.3 -1.3 26
2019-08-15 13:00:00 35.4 3 Oeste 13 Sur 0 956.9 -0.6 26
2019-08-15 12:00:00 34.6 3 Este 10 Sudeste 0 957.5 0 29
2019-08-15 11:00:00 29.3 0 Calma 6 Este 0 957.6 0.4 35
2019-08-15 10:00:00 24.4 0 Calma 9 Este 0 957.5 1 41
2019-08-15 09:00:00 21.7 0 Calma 3 Nordeste 0 957.5 1 46
2019-08-15 08:00:00 18.4 0 Calma 0 Calma 0 957.2 0.8 50
2019-08-15 07:00:00 16.8 0 Calma -- -- 0 956.5 0.1 51
2019-08-15 06:00:00 17.5 0 Calma -- -- 0 956.5 0.1 48
2019-08-15 05:00:00 17.7 0 Calma -- -- 0 956.4 -0.5 47
2019-08-15 04:00:00 19.3 0 Calma -- -- 0 956.4 -0.6 43
2019-08-15 03:00:00 20.8 0 Calma 0 Calma 0 956.4 -0.2 41
2019-08-15 02:00:00 22.3 0 Calma -- -- 0 956.9 0.1 38
2019-08-15 01:00:00 23.5 0 Calma 4 Sudoeste 0 957 0.6 35
2019-08-15 00:00:00 26.5 0 Calma 4 Oeste 0 956.6 0.9 33
2019-08-14 23:00:00 27.5 0 Calma 9 Oeste 0 956.8 1.2 31
2019-08-14 22:00:00 28.5 3 Oeste 15 Sudoeste 0 956.4 0.6 29
2019-08-14 21:00:00 30.5 5 Sudoeste 17 Sudoeste 0 955.7 -0.3 27
2019-08-14 20:00:00 32.7 3 Sudoeste 13 Sudoeste 0 955.6 -0.5 26
2019-08-14 19:00:00 34.8 0 Calma 22 Sudoeste 0 955.8 -0.6 25
2019-08-14 18:00:00 35.1 4 Oeste 26 Sudoeste 0 956 -0.9 24
2019-08-14 17:00:00 36.6 0 Calma 22 Sur 0 956.1 -1.7 24
2019-08-14 16:00:00 34.8 6 Sudoeste 21 Oeste 0 956.4 -1.8 25
2019-08-14 15:00:00 35 4 Sudoeste 21 Sudoeste 0 956.9 -1.5 26
2019-08-14 14:00:00 34.1 4 Sudoeste 18 Sudoeste 0 957.8 -0.5 27
2019-08-14 13:00:00 33.4 6 Nordeste 17 Nordeste 0 958.2 -0.3 28
2019-08-14 12:00:00 31 3 Este 13 Este 0 958.4 -0.1 30
2019-08-14 11:00:00 27.2 0 Calma 8 Este 0 958.3 0.1 35
2019-08-14 10:00:00 22.3 0 Calma 5 Nordeste 0 958.5 0.8 41
2019-08-14 09:00:00 19.1 0 Calma 0 Calma 0 958.5 1.1 46
2019-08-14 08:00:00 15.7 0 Calma -- -- 0 958.2 0.9 51
2019-08-14 07:00:00 14.4 0 Calma -- -- 0 957.7 0.3 49
2019-08-14 06:00:00 14.8 0 Calma -- -- 0 957.4 0.1 48
2019-08-14 05:00:00 16.7 0 Calma -- -- 0 957.3 -0.1 43
2019-08-14 04:00:00 16.8 0 Calma 0 Calma 0 957.4 0.6 43
2019-08-14 03:00:00 18.8 0 Calma -- -- 0 957.3 1 39
2019-08-14 02:00:00 20.6 0 Calma -- -- 0 957.4 0.6 37
2019-08-14 01:00:00 22.1 0 Calma -- -- 0 956.8 0.4 35
2019-08-14 00:00:00 23.8 0 Calma 9 Oeste 0 956.3 1 32
2019-08-13 23:00:00 24.8 5 Sudoeste 8 Sudoeste 0 956.8 1.8 30
2019-08-13 22:00:00 26.7 0 Calma 12 Oeste 0 956.4 1.3 27
2019-08-13 21:00:00 28.5 0 Calma 10 Noroeste 0 955.3 0 25
2019-08-13 20:00:00 30.7 0 Calma 15 Noroeste 0 955 -0.4 25
2019-08-13 19:00:00 32.8 2 Oeste 15 Oeste 0 955.1 -0.8 25
2019-08-13 18:00:00 33.4 3 Norte 17 Noroeste 0 955.3 -1.2 25
2019-08-13 17:00:00 34.3 0 Calma 18 Norte 0 955.4 -1.4 25
2019-08-13 16:00:00 34.2 4 Norte 18 Oeste 0 955.9 -1.4 26
2019-08-13 15:00:00 31.9 8 Nordeste 18 Norte 0 956.5 -1.1 29
2019-08-13 14:00:00 31.3 3 Norte 18 Nordeste 0 956.8 -0.8 30
2019-08-13 13:00:00 30 3 Nordeste 12 Nordeste 0 957.3 -0.1 34
2019-08-13 12:00:00 28.7 0 Calma 5 Este 0 957.6 0.5 39
2019-08-13 11:00:00 27 0 Calma 2 Este 0 957.6 0.8 40
2019-08-13 10:00:00 22.3 0 Calma 0 Calma 0 957.4 1 39
2019-08-13 09:00:00 20.6 0 Calma -- -- 0 957.1 1.2 41
2019-08-13 08:00:00 16.1 0 Calma -- -- 0 956.8 0.9 43
2019-08-13 07:00:00 15.1 0 Calma -- -- 0 956.4 0.4 42
2019-08-13 06:00:00 16.9 0 Calma -- -- 0 955.9 -0.4 40
2019-08-13 05:00:00 17.2 0 Calma -- -- 0 955.9 -0.6 38
2019-08-13 04:00:00 21.1 0 Calma 4 Sudoeste 0 956 -0.5 35
2019-08-13 03:00:00 20.8 0 Calma 9 Oeste 0 956.3 0.1 34
2019-08-13 02:00:00 22.7 0 Calma 3 Noroeste 0 956.5 0.3 32
2019-08-13 01:00:00 23.2 0 Calma 12 Este 0 956.5 0.8 31
2019-08-13 00:00:00 24.3 8 Sudeste 18 Este 0 956.2 1.1 30
2019-08-12 23:00:00 23.8 3 Sur 9 Sur 0 956.2 1.8 30
2019-08-12 22:00:00 24.5 0 Calma 19 Nordeste 0 955.7 0.8 28
2019-08-12 21:00:00 26.1 6 Norte 17 Norte 0 955.1 0.5 27
2019-08-12 20:00:00 27.4 2 Nordeste 12 Nordeste 0 954.4 -0.7 27
2019-08-12 19:00:00 29.7 0 Calma 17 Nordeste 0 954.9 -0.8 26
2019-08-12 18:00:00 30 0 Calma 17 Norte 0 954.6 -1.6 26
2019-08-12 17:00:00 29.7 6 Nordeste 22 Nordeste 0 955.1 -1.6 26
2019-08-12 16:00:00 29.6 8 Norte 24 Norte 0 955.7 -1.4 27
2019-08-12 15:00:00 29.1 9 Nordeste 26 Nordeste 0 956.2 -1 29
2019-08-12 14:00:00 27.9 6 Norte 25 Nordeste 0 956.7 -0.4 31
2019-08-12 13:00:00 26.9 10 Nordeste 26 Nordeste 0 957.1 0.2 35
2019-08-12 12:00:00 25.8 7 Nordeste 21 Nordeste 0 957.2 0.5 36
2019-08-12 11:00:00 24.9 0 Calma 0 Calma 0 957.1 1.2 40
2019-08-12 10:00:00 20.7 0 Calma 0 Calma 0 956.9 1 46
2019-08-12 09:00:00 16.9 0 Calma -- -- 0 956.7 1.1 51
2019-08-12 08:00:00 13.8 0 Calma -- -- 0 955.9 0.3 58
2019-08-12 07:00:00 11.9 0 Calma -- -- 0 955.9 0.2 57
2019-08-12 06:00:00 14.5 0 Calma -- -- 0 955.6 -0.3 52
2019-08-12 05:00:00 14.6 0 Calma -- -- 0 955.6 -0.7 51
2019-08-12 04:00:00 16.9 0 Calma -- -- 0 955.7 -0.7 47
2019-08-12 03:00:00 18.5 0 Calma -- -- 0 955.9 -0.2 43
2019-08-12 02:00:00 19.5 0 Calma 0 Calma 0 956.3 0.1 40
2019-08-12 01:00:00 20.6 0 Calma 3 Oeste 0 956.4 0.4 38
2019-08-12 00:00:00 21.4 0 Calma 9 Sudoeste 0 956.1 1 36
2019-08-11 23:00:00 22.2 4 Sudoeste 14 Oeste 0 956.2 1.3 35
2019-08-11 22:00:00 22.9 5 Sudoeste 18 Sudoeste 0 956 1.2 34
2019-08-11 21:00:00 24.4 4 Sudoeste 21 Oeste 0 955.1 -0.1 34
2019-08-11 20:00:00 24.7 4 Oeste 28 Sudoeste 0 954.9 -0.2 35
2019-08-11 19:00:00 28.2 8 Oeste 27 Sudoeste 0 954.8 -0.9 29
2019-08-11 18:00:00 29.1 8 Oeste 24 Oeste 0 955.2 -0.6 29
2019-08-11 17:00:00 29.6 10 Sudoeste 34 Sudoeste 0 955.1 -1.1 30
2019-08-11 16:00:00 27.7 10 Oeste 32 Sudoeste 0 955.7 -0.9 32
2019-08-11 15:00:00 30.5 11 Sudoeste 35 Sudoeste 0 955.8 -0.7 29
2019-08-11 14:00:00 29.6 6 Oeste 28 Oeste 0 956.2 -0.5 35
2019-08-11 13:00:00 28.7 5 Oeste 26 Sudoeste 0 956.6 0.1 39
2019-08-11 12:00:00 26.4 10 Sudoeste 22 Sudoeste 0 956.5 -0.1 45
2019-08-11 11:00:00 25 4 Oeste 17 Sudoeste 0 956.7 0.7 49
2019-08-11 10:00:00 22.8 4 Sudoeste 19 Sudoeste 0 956.5 1.5 55
2019-08-11 09:00:00 20.3 6 Sudoeste 21 Oeste 0 956.6 1.5 60
2019-08-11 08:00:00 19.2 0 Calma 20 Sudoeste 0 956 1.1 65
2019-08-11 07:00:00 18.2 0 Calma -- -- 0 955 0.1 62
2019-08-11 06:00:00 18.7 0 Calma -- -- 0 955.1 0.1 60
2019-08-11 05:00:00 18.8 0 Calma 5 Noroeste 0 954.9 -0.1 57
2019-08-11 04:00:00 19.8 0 Calma 3 Sudoeste 0 954.9 -0.3 50
2019-08-11 03:00:00 21 0 Calma 6 Oeste 0 955 -0.5 43
2019-08-11 02:00:00 22.5 4 Sudoeste 9 Sudoeste 0 955 -0.2 38
2019-08-11 01:00:00 23.3 0 Calma 3 Sudoeste 0 955.2 0.1 36
2019-08-11 00:00:00 23.2 0 Calma 10 Sudoeste 0 955.5 1 36
2019-08-10 23:00:00 25 0 Calma 6 Sudoeste 0 955.2 0.5 35
2019-08-10 22:00:00 25.7 0 Calma 12 Noroeste 0 955.1 0.2 35
2019-08-10 21:00:00 28 0 Calma 15 Oeste 0 954.5 -0.5 32
2019-08-10 20:00:00 30.1 5 Oeste 18 Oeste 0 954.7 -1 34
2019-08-10 19:00:00 31.4 3 Oeste 22 Sudoeste 0 954.9 -1.6 33
2019-08-10 18:00:00 32.4 5 Sudoeste 23 Sudoeste 0 955 -1.6 33
2019-08-10 17:00:00 32.5 4 Oeste 24 Oeste 0 955.7 -1.5 34
2019-08-10 16:00:00 33.4 12 Sudoeste 26 Sudoeste 0 956.5 -1.3 35
2019-08-10 15:00:00 32.1 7 Sudoeste 25 Sudoeste 0 956.6 -1.5 37
2019-08-10 14:00:00 30.8 4 Oeste 24 Sudoeste 0 957.2 -1.2 38
2019-08-10 13:00:00 30.5 4 Sudoeste 22 Sudoeste 0 957.8 -0.5 41
2019-08-10 12:00:00 27.4 0 Calma 7 Noroeste 0 958.1 -0.2 43
2019-08-10 11:00:00 27 0 Calma 3 Nordeste 0 958.4 0.3 50
2019-08-10 10:00:00 24.3 0 Calma -- -- 0 958.3 0.8 59
2019-08-10 09:00:00 22.7 0 Calma -- -- 0 958.3 1.2 66
2019-08-10 08:00:00 20.8 0 Calma -- -- 0 958.1 1.4 71
2019-08-10 07:00:00 19.1 0 Calma -- -- 0 957.5 0.8 75
2019-08-10 06:00:00 19.5 0 Calma -- -- 0 957.1 0.4 75
2019-08-10 05:00:00 20.3 0 Calma 0 Calma 0 956.7 -0.2 75
2019-08-10 04:00:00 21.2 0 Calma -- -- 0 956.7 -0.1 70
2019-08-10 03:00:00 21.8 0 Calma 0 Calma 0 956.7 0 69
2019-08-10 02:00:00 22.5 0 Calma 9 Sudoeste 0 956.9 0.6 72
2019-08-10 01:00:00 23.1 0 Calma 6 Sudoeste 0 956.8 1.4 69
2019-08-10 00:00:00 23.9 0 Calma 3 Oeste 0 956.7 1.8 67
2019-08-09 23:00:00 24.8 0 Calma 15 Oeste 0 956.3 1.9 66
2019-08-09 22:00:00 26 2 Oeste 19 Oeste 0 955.4 1.1 63
2019-08-09 21:00:00 27.9 2 Oeste 21 Noroeste 0 954.9 0.3 58
2019-08-09 20:00:00 30.2 3 Oeste 20 Oeste 0 954.4 -0.7 49
2019-08-09 19:00:00 32.2 6 Oeste 24 Noroeste 0 954.3 -1.1 43
2019-08-09 18:00:00 33 10 Sudoeste 25 Oeste 0 954.6 -1.2 42
2019-08-09 17:00:00 33.6 9 Oeste 30 Sudoeste 0 955.1 -1 40
2019-08-09 16:00:00 33.2 13 Sudoeste 30 Sudoeste 0 955.4 -0.9 41
2019-08-09 15:00:00 32.9 6 Oeste 28 Sudoeste 0 955.8 -0.7 42
2019-08-09 14:00:00 32 9 Oeste 29 Sudoeste 0 956.1 -0.1 46
2019-08-09 13:00:00 30.5 5 Oeste 25 Sudoeste 0 956.3 0.4 51
2019-08-09 12:00:00 29.6 6 Oeste 22 Sudoeste 0 956.5 1 53
2019-08-09 11:00:00 28.3 4 Sudoeste 19 Sudoeste 0 956.2 1 57
2019-08-09 10:00:00 25.9 0 Calma 15 Sudoeste 0 955.9 0.9 66
2019-08-09 09:00:00 24.7 0 Calma 2 Sudoeste 0 955.5 1 73
2019-08-09 08:00:00 21.8 0 Calma -- -- 0 955.2 0.7 77
2019-08-09 07:00:00 21.6 0 Calma 12 Oeste 0 955 0.8 76
2019-08-09 06:00:00 22.7 8 Sudoeste 21 Sudoeste 0 954.5 0.3 71
2019-08-09 05:00:00 23.1 5 Sudoeste 20 Oeste 0 954.5 0.5 67
2019-08-09 04:00:00 23.6 0 Calma 12 Sudoeste 0 954.2 0.5 64
2019-08-09 03:00:00 24.1 0 Calma 3 Oeste 0 954.2 0.9 61
2019-08-09 02:00:00 25 0 Calma 10 Sudoeste 0 954 1 56
2019-08-09 01:00:00 26.4 0 Calma 12 Oeste 0 953.7 1.7 51
2019-08-09 00:00:00 27.5 2 Oeste 8 Oeste 0 953.3 2 45
2019-08-08 23:00:00 27.7 4 Sudoeste 7 Sudoeste 0 953 1.4 41
2019-08-08 22:00:00 29.2 0 Calma 6 Oeste 0 952 0.3 37
2019-08-08 21:00:00 31.4 0 Calma 16 Sudoeste 0 951.3 -0.8 33
2019-08-08 20:00:00 33.6 5 Oeste 24 Sudoeste 0 951.6 -0.8 30
2019-08-08 19:00:00 35.2 5 Oeste 26 Oeste 0 951.7 -1.1 31
2019-08-08 18:00:00 35.1 10 Sudoeste 27 Sudoeste 0 952.1 -1 30
2019-08-08 17:00:00 36.8 7 Sudoeste 30 Oeste 0 952.4 -1 30
2019-08-08 16:00:00 35.4 8 Sudoeste 30 Sudoeste 0 952.8 -1.6 31
2019-08-08 15:00:00 33.9 17 Sudoeste 29 Sudoeste 0 953.1 -1.5 33
2019-08-08 14:00:00 32.6 12 Sur 22 Sur 0 953.4 -0.6 35
2019-08-08 13:00:00 31.9 5 Sur 20 Sudoeste 0 954.4 -0.2 37
2019-08-08 12:00:00 29.7 2 Este 12 Este 0 954.6 0.2 43
2019-08-08 11:00:00 27.7 0 Calma 2 Nordeste 0 954 -0.2 48
2019-08-08 10:00:00 24.7 0 Calma -- -- 0 954.6 0.6 54
2019-08-08 09:00:00 21.9 0 Calma -- -- 0 954.4 0.5 64
2019-08-08 08:00:00 19.3 0 Calma -- -- 0 954.2 0.2 71
2019-08-08 07:00:00 16.6 0 Calma -- -- 0 954 0 75
2019-08-08 06:00:00 17.1 0 Calma -- -- 0 953.9 0.2 73
2019-08-08 05:00:00 17.9 0 Calma -- -- 0 954 -0.3 69
2019-08-08 04:00:00 18.8 0 Calma -- -- 0 954 -0.2 66
2019-08-08 03:00:00 20.1 0 Calma 0 Calma 0 953.7 -0.6 63
2019-08-08 02:00:00 21.6 0 Calma -- -- 0 954.3 0.1 59
2019-08-08 01:00:00 22.5 0 Calma 0 Calma 0 954.2 0.4 56
2019-08-08 00:00:00 23.1 0 Calma 7 Sudoeste 0 954.3 1.2 55
2019-08-07 23:00:00 23.9 0 Calma 12 Oeste 0 954.2 1.2 52
2019-08-07 22:00:00 25.2 3 Sudoeste 10 Oeste 0 953.8 0.5 48
2019-08-07 21:00:00 26.5 0 Calma 13 Oeste 0 953.1 -0.3 47
2019-08-07 20:00:00 27.4 3 Oeste 14 Oeste 0 953 -0.4 45
2019-08-07 19:00:00 28.2 3 Oeste 17 Oeste 0 953.3 -0.8 42
2019-08-07 18:00:00 29.1 3 Oeste 12 Oeste 0 953.4 -0.5 40
2019-08-07 17:00:00 29.4 4 Oeste 22 Oeste 0 953.4 -0.3 39
2019-08-07 16:00:00 30.9 5 Sudoeste 23 Sudoeste 0 954.1 -0.2 38
2019-08-07 15:00:00 29.5 4 Oeste 23 Oeste 0 953.9 0.1 39
2019-08-07 14:00:00 30.8 7 Oeste 24 Oeste 0 953.7 0.5 40
2019-08-07 13:00:00 29.5 4 Oeste 22 Sudoeste 0 954.3 1.4 43
2019-08-07 12:00:00 27.9 6 Sudoeste 19 Sudoeste 0 953.8 1 48
2019-08-07 11:00:00 27.2 0 Calma 9 Oeste 0 953.2 1.2 49
2019-08-07 10:00:00 24.5 0 Calma 8 Sudoeste 0 952.9 1.2 57
2019-08-07 09:00:00 22.6 0 Calma 6 Oeste 0 952.8 1.6 64
2019-08-07 08:00:00 21.2 0 Calma 8 Sudoeste 0 952 0.7 68
2019-08-07 07:00:00 21.1 0 Calma 7 Sudoeste 0 951.7 0.5 66
2019-08-07 06:00:00 21.9 0 Calma 15 Sudoeste 0 951.2 0.1 63
2019-08-07 05:00:00 23 5 Sudoeste 15 Oeste 0 951.3 -0.2 59
2019-08-07 04:00:00 23.9 0 Calma 10 Noroeste 0 951.2 -0.3 53
2019-08-07 03:00:00 25.1 4 Oeste 13 Oeste 0 951.1 -0.3 48
2019-08-07 02:00:00 25.3 0 Calma 9 Sur 0 951.5 0.2 45
2019-08-07 01:00:00 26.5 5 Sudoeste 14 Sudoeste 0 951.5 1.1 39
2019-08-07 00:00:00 27 0 Calma 8 Sudoeste 0 951.4 1.4 37
2019-08-06 23:00:00 28.1 5 Sudoeste 12 Sudoeste 0 951.3 1.6 35
2019-08-06 22:00:00 28.3 0 Calma 7 Oeste 0 950.4 0.4 35
2019-08-06 21:00:00 30.5 2 Oeste 15 Oeste 0 950 -0.1 31
2019-08-06 20:00:00 33.3 2 Sudoeste 20 Noroeste 0 949.7 -0.9 28
2019-08-06 19:00:00 35.5 5 Oeste 24 Sudoeste 0 950 -1.5 25
2019-08-06 18:00:00 35.3 12 Sudoeste 35 Sudoeste 0 950.1 -2 25
2019-08-06 17:00:00 37.2 6 Sudoeste 29 Sudoeste 0 950.6 -2.1 25
2019-08-06 16:00:00 36.3 9 Sudoeste 27 Sudoeste 0 951.5 -1.6 25
2019-08-06 15:00:00 36.1 6 Oeste 23 Sudoeste 0 952.1 -1.3 26
2019-08-06 14:00:00 34.4 10 Sudoeste 24 Sudoeste 0 952.7 -0.9 28
2019-08-06 13:00:00 33.5 6 Sudoeste 21 Oeste 0 953.1 -0.8 30
2019-08-06 12:00:00 31.6 11 Sudoeste 23 Sudoeste 0 953.4 -0.8 33
2019-08-06 11:00:00 30.5 0 Calma 0 Calma 0 953.6 0.2 38
2019-08-06 10:00:00 25.5 0 Calma 0 Calma 0 953.9 1.8 40
2019-08-06 09:00:00 21.7 0 Calma -- -- 0 954.2 1.3 43
2019-08-06 08:00:00 20.4 0 Calma -- -- 0 953.4 0.4 48
2019-08-06 07:00:00 18.6 0 Calma -- -- 0 952.1 -0.7 45
2019-08-06 06:00:00 19.4 0 Calma -- -- 0 952.9 0 43
2019-08-06 05:00:00 21.5 0 Calma -- -- 0 953 0.1 40
2019-08-06 04:00:00 22.5 0 Calma -- -- 0 952.8 0 39
2019-08-06 03:00:00 23 0 Calma -- -- 0 952.9 0.5 35
2019-08-06 02:00:00 24.2 0 Calma -- -- 0 952.9 0.7 34
2019-08-06 01:00:00 26.2 0 Calma 0 Calma 0 952.8 1.4 31
2019-08-06 00:00:00 26.9 0 Calma 12 Sudoeste 0 952.4 1.7 31
2019-08-05 23:00:00 28 4 Oeste 10 Oeste 0 952.2 0.9 30
2019-08-05 22:00:00 28.9 2 Sudoeste 6 Oeste 0 951.4 0.2 27
2019-08-05 21:00:00 31.9 0 Calma 15 Oeste 0 950.7 -0.6 25
2019-08-05 20:00:00 34.1 4 Oeste 21 Sudoeste 0 951.3 -0.3 25
2019-08-05 19:00:00 36.2 6 Oeste 24 Sudoeste 0 951.2 -0.8 24
2019-08-05 18:00:00 35.8 5 Oeste 22 Oeste 0 951.3 -1.2 25
2019-08-05 17:00:00 36.6 8 Oeste 27 Oeste 0 951.6 -1.4 25
2019-08-05 16:00:00 37.7 6 Sudoeste 29 Sudoeste 0 952 -1.6 26
2019-08-05 15:00:00 36.3 7 Sudoeste 25 Sudoeste 0 952.5 -2 28
2019-08-05 14:00:00 35 4 Sur 19 Sudoeste 0 953 -1.4 30
2019-08-05 13:00:00 33.9 8 Sur 22 Sudoeste 0 953.6 -0.7 33
2019-08-05 12:00:00 32.4 0 Calma -- -- -- 954.5 0 35
2019-08-05 11:00:00 30.8 0 Calma 7 Oeste 0 954.4 0 38
2019-08-05 10:00:00 26.1 0 Calma 0 Calma 0 954.3 0.2 43
2019-08-05 09:00:00 22.2 0 Calma 0 Calma 0 954.5 0.4 47
2019-08-05 08:00:00 19.2 0 Calma -- -- 0 954.4 0.7 53
2019-08-05 07:00:00 18.5 0 Calma -- -- 0 954.1 0.1 53
2019-08-05 06:00:00 18.3 0 Calma -- -- 0 954.1 0.2 49
2019-08-05 05:00:00 20.7 0 Calma -- -- 0 953.7 -0.3 45
2019-08-05 04:00:00 21 0 Calma -- -- 0 954 -0.1 42
2019-08-05 03:00:00 21.5 0 Calma 0 Calma 0 953.9 0.2 42
2019-08-05 02:00:00 23.7 0 Calma 4 Sudoeste 0 954 0.5 38
2019-08-05 01:00:00 24.6 0 Calma 8 Sudoeste 0 954.1 1.4 37
2019-08-05 00:00:00 26.5 0 Calma 10 Sudoeste 0 953.7 1.1 33
2019-08-04 23:00:00 26.6 0 Calma 7 Sudoeste 0 953.5 1.4 33
2019-08-04 22:00:00 28.8 0 Calma 9 Noroeste 0 952.7 0.7 32
2019-08-04 21:00:00 31.2 2 Oeste 20 Noroeste 0 952.6 0.4 30
2019-08-04 20:00:00 33.4 6 Oeste 19 Oeste 0 952.1 -0.2 29
2019-08-04 19:00:00 35.2 4 Oeste 21 Sudoeste 0 952 -1.2 29
2019-08-04 18:00:00 36 2 Oeste 26 Sudoeste 0 952.2 -1.2 27
2019-08-04 17:00:00 36.4 5 Oeste 20 Sudoeste 0 952.3 -1.5 26
2019-08-04 16:00:00 36.4 6 Oeste 28 Sudoeste 0 953.2 -1.4 27
2019-08-04 15:00:00 35.2 8 Sudoeste 27 Sudoeste 0 953.4 -1 29
2019-08-04 14:00:00 34.2 7 Sudoeste 26 Oeste 0 953.8 -0.5 30
2019-08-04 13:00:00 33.7 6 Sudoeste 27 Sudoeste 0 954.6 0.4 31
2019-08-04 12:00:00 33.2 2 Oeste 16 Oeste 0 954.4 -0.1 36
2019-08-04 11:00:00 29 0 Calma 5 Nordeste 0 954.3 0 39
2019-08-04 10:00:00 25.8 0 Calma 2 Este 0 954.2 0.4 39
2019-08-04 09:00:00 21.7 0 Calma 0 Calma 0 954.5 1.7 43
2019-08-04 08:00:00 20.5 0 Calma -- -- 0 954.3 1.3 47
2019-08-04 07:00:00 17.6 0 Calma -- -- 0 953.8 0.7 47
2019-08-04 06:00:00 19.4 0 Calma 0 Calma 0 952.8 -0.1 43
2019-08-04 05:00:00 21.1 0 Calma -- -- 0 953 0.3 40
2019-08-04 04:00:00 21.1 0 Calma -- -- 0 953.1 0.2 39
2019-08-04 03:00:00 21.9 0 Calma 3 Sudoeste 0 952.9 0.2 34
2019-08-04 02:00:00 24.4 0 Calma 4 Sudoeste 0 952.7 0.2 34
2019-08-04 01:00:00 26.2 0 Calma 10 Sudoeste 0 952.9 1 32
2019-08-04 00:00:00 27.3 4 Sudoeste 10 Oeste 0 952.7 1.6 33
2019-08-03 23:00:00 28.5 4 Sudoeste 11 Sudoeste 0 952.5 2 32
2019-08-03 22:00:00 29.1 0 Calma 13 Oeste 0 951.9 1.1 30
2019-08-03 21:00:00 31.7 4 Oeste 20 Noroeste 0 951.1 -0.2 30
2019-08-03 20:00:00 34.4 2 Oeste 21 Sudoeste 0 950.5 -1 26
2019-08-03 19:00:00 36.6 3 Sudoeste 25 Sudoeste 0 950.8 -1.3 24
2019-08-03 18:00:00 37.5 4 Oeste 25 Sudoeste 0 951.3 -1.4 24
2019-08-03 17:00:00 37.3 8 Sudoeste 36 Sur 0 951.5 -1.5 24
2019-08-03 16:00:00 36.3 8 Sudoeste 30 Sudoeste 0 952.1 -1.3 25
2019-08-03 15:00:00 36.7 10 Sudoeste 27 Sudoeste 0 952.7 -0.7 26
2019-08-03 14:00:00 35.7 7 Oeste 24 Sudoeste 0 953 -0.7 28
2019-08-03 13:00:00 33.7 12 Sudoeste 26 Sur 0 953.4 -0.5 30
2019-08-03 12:00:00 34.1 5 Sudeste 22 Sudeste 0 953.4 -0.2 30
2019-08-03 11:00:00 29.6 0 Calma 5 Este 0 953.7 -0.1 30
2019-08-03 10:00:00 25.8 0 Calma 4 Este 0 953.9 0.6 35
2019-08-03 09:00:00 20.8 0 Calma 0 Calma 0 953.6 0.9 39
2019-08-03 08:00:00 18.5 0 Calma -- -- 0 953.8 0.9 43
2019-08-03 07:00:00 16.8 0 Calma 2 Nordeste 0 953.3 0.7 42
2019-08-03 06:00:00 17.7 0 Calma -- -- 0 952.7 0.1 39
2019-08-03 05:00:00 18 0 Calma -- -- 0 952.9 0.2 38
2019-08-03 04:00:00 19.8 0 Calma -- -- 0 952.6 -0.1 36
2019-08-03 03:00:00 21.3 0 Calma -- -- 0 952.6 -0.3 34
2019-08-03 02:00:00 22.4 0 Calma 3 Sudoeste 0 952.7 0.1 31
2019-08-03 01:00:00 24.6 0 Calma 9 Sudoeste 0 952.7 0.6 30
2019-08-03 00:00:00 27.8 4 Sudoeste 9 Sudoeste 0 952.9 1.1 27
2019-08-02 23:00:00 27.4 0 Calma 5 Sudoeste 0 952.6 0.7 29
2019-08-02 22:00:00 29.2 0 Calma 5 Oeste 0 952.1 0.2 27
2019-08-02 21:00:00 31.9 0 Calma 12 Sudoeste 0 951.8 -0.3 26
2019-08-02 20:00:00 34.2 0 Calma 15 Oeste 0 951.9 -0.6 23
2019-08-02 19:00:00 36 4 Oeste 20 Oeste 0 951.9 -1 24
2019-08-02 18:00:00 36.5 3 Oeste 19 Noroeste 0 952.1 -1.3 24
2019-08-02 17:00:00 36.9 6 Sudoeste 23 Sudoeste 0 952.5 -1.2 24
2019-08-02 16:00:00 37.3 6 Oeste 21 Sudoeste 0 952.9 -0.7 24
2019-08-02 15:00:00 36.2 5 Sudoeste 25 Sudoeste 0 953.4 -1.2 25
2019-08-02 14:00:00 36 3 Oeste 19 Sudoeste 0 953.7 0.1 25
2019-08-02 13:00:00 34.4 4 Sudoeste 18 Sudoeste 0 953.6 -0.7 27
2019-08-02 12:00:00 34.6 0 Calma 10 Norte 0 954.6 0.1 29
2019-08-02 11:00:00 29.7 0 Calma 2 Este 0 953.6 -0.2 35
2019-08-02 10:00:00 25.5 0 Calma 4 Nordeste 0 954.3 0.9 40
2019-08-02 09:00:00 21 0 Calma 0 Calma 0 954.5 1.5 46
2019-08-02 08:00:00 18.7 0 Calma -- -- 0 953.8 0.6 50
2019-08-02 07:00:00 16.7 0 Calma -- -- 0 953.4 0.8 50
2019-08-02 06:00:00 18.7 0 Calma -- -- 0 953 0.3 46
2019-08-02 05:00:00 18.5 0 Calma 10 Sudoeste 0 953.2 0.2 46
2019-08-02 04:00:00 19.5 0 Calma 5 Sudoeste 0 952.6 -0.3 43
2019-08-02 03:00:00 22.8 0 Calma 10 Oeste 0 952.7 -0.2 39
2019-08-02 02:00:00 23 0 Calma 5 Sudoeste 0 953 0.7 39
2019-08-02 01:00:00 23.5 0 Calma 7 Sudoeste 0 952.9 1.2 38
2019-08-02 00:00:00 25.7 0 Calma 2 Sudoeste 0 952.9 1.6 35
2019-08-01 23:00:00 26 0 Calma 9 Oeste 0 952.3 1.3 30
2019-08-01 22:00:00 27.8 2 Oeste 9 Sudoeste 0 951.7 0.7 27
2019-08-01 21:00:00 30.5 2 Oeste 23 Oeste 0 951.3 0.2 26
2019-08-01 20:00:00 32.3 6 Oeste 25 Sudoeste 0 951 0 27
2019-08-01 19:00:00 34.6 3 Oeste 22 Noroeste 0 951 -0.7 26
2019-08-01 18:00:00 35 3 Oeste 23 Oeste 0 951.1 -1 26
2019-08-01 17:00:00 35.6 5 Oeste 23 Oeste 0 951 -1.1 27
2019-08-01 16:00:00 35.9 3 Oeste 28 Sudoeste 0 951.7 -0.9 27
2019-08-01 15:00:00 34.1 7 Oeste 27 Sudoeste 0 952.1 -0.6 27
2019-08-01 14:00:00 33.5 10 Sudoeste 30 Sudoeste 0 952.1 -0.3 28
2019-08-01 13:00:00 34.7 8 Oeste 23 Sudoeste 0 952.6 0.7 29
2019-08-01 12:00:00 30.7 9 Sudoeste 18 Sudoeste 0 952.7 1.2 33
2019-08-01 11:00:00 29.3 2 Sur 11 Nordeste 0 952.4 1 36
2019-08-01 10:00:00 27.2 0 Calma 5 Nordeste 0 951.9 0.7 39
2019-08-01 09:00:00 24.5 0 Calma -- -- 0 951.5 0.6 40
2019-08-01 08:00:00 22.7 0 Calma -- -- 0 951.4 0.8 43
2019-08-01 07:00:00 21.8 0 Calma -- -- 0 951.2 0.6 42
2019-08-01 06:00:00 22.6 0 Calma 6 Sur 0 950.9 0.5 40
2019-08-01 05:00:00 23.3 0 Calma 7 Sudoeste 0 950.6 0.4 37
2019-08-01 04:00:00 23.5 0 Calma 11 Sudoeste 0 950.6 0.4 35
2019-08-01 03:00:00 25 5 Sudoeste 11 Sudoeste 0 950.4 0 33
2019-08-01 02:00:00 24.8 0 Calma 5 Sudoeste 0 950.2 0.2 32
2019-08-01 01:00:00 26.2 0 Calma 9 Sudoeste 0 950.2 1.1 30
2019-08-01 00:00:00 27.4 0 Calma 12 Oeste 0 950.4 1.6 30
2019-07-31 23:00:00 28.7 3 Oeste 9 Sudoeste 0 950 1.4 28
2019-07-31 22:00:00 29.6 2 Sudoeste 6 Sudoeste 0 949.1 0.2 27
2019-07-31 21:00:00 32.2 0 Calma 11 Noroeste 0 948.8 -0.3 26
2019-07-31 20:00:00 34.2 0 Calma 14 Oeste 0 948.6 -0.9 24
2019-07-31 19:00:00 37.3 2 Oeste 24 Sudoeste 0 948.9 -1.4 23
2019-07-31 18:00:00 37.3 6 Sudoeste 21 Sur 0 949.1 -1.8 23
2019-07-31 17:00:00 37.5 5 Sudoeste 22 Sudoeste 0 949.5 -2.1 24
2019-07-31 16:00:00 35.9 0 Calma 26 Sur 0 950.3 -1.7 25
2019-07-31 15:00:00 37 7 Sudeste 23 Sudeste 0 950.9 -1.1 26
2019-07-31 14:00:00 35.3 3 Sudoeste 23 Sudoeste 0 951.6 -0.9 27
2019-07-31 13:00:00 34.4 3 Sur 14 Sudoeste 0 952 -0.7 30
2019-07-31 12:00:00 31.3 5 Este 18 Nordeste 0 952 -0.6 35
2019-07-31 11:00:00 28.9 0 Calma 9 Este 0 952.5 0.2 42
2019-07-31 10:00:00 24.7 0 Calma 0 Calma 0 952.7 0.4 38
2019-07-31 09:00:00 19.2 0 Calma 0 Calma 0 952.6 0.6 40
2019-07-31 08:00:00 17.8 0 Calma -- -- 0 952.3 0.4 43
2019-07-31 07:00:00 15.5 0 Calma 5 Oeste 0 952.3 0.6 42
2019-07-31 06:00:00 16.4 0 Calma 6 Este 0 952 0 42
2019-07-31 05:00:00 16.5 0 Calma -- -- 0 951.9 -0.5 40
2019-07-31 04:00:00 17.6 0 Calma -- -- 0 951.7 -0.7 38
2019-07-31 03:00:00 19.4 0 Calma 3 Sudoeste 0 952 -0.5 35
2019-07-31 02:00:00 21.1 0 Calma -- -- 0 952.4 0 31
2019-07-31 01:00:00 22.2 0 Calma 7 Sudoeste 0 952.4 1 28
2019-07-31 00:00:00 24.7 5 Sudoeste 10 Oeste 0 952.5 1.3 25
2019-07-30 23:00:00 25.2 0 Calma 10 Oeste 0 952.4 1.3 23
2019-07-30 22:00:00 26.9 2 Sudoeste 10 Oeste 0 951.4 0.4 22
2019-07-30 21:00:00 29.5 2 Oeste 15 Oeste 0 951.2 -0.1 22
2019-07-30 20:00:00 31.9 4 Oeste 19 Sudoeste 0 951.1 -0.8 22
2019-07-30 19:00:00 33.8 4 Oeste 19 Sudoeste 0 951 -1.4 22
2019-07-30 18:00:00 34.5 3 Sudoeste 17 Noroeste 0 951.3 -1.6 23
2019-07-30 17:00:00 34 3 Sur 19 Sur 0 951.9 -1.2 24
2019-07-30 16:00:00 33.6 3 Sudeste 22 Sudoeste 0 952.4 -1.6 26
2019-07-30 15:00:00 32.6 4 Nordeste 26 Sur 0 952.9 -1.5 27
2019-07-30 14:00:00 33.6 2 Este 17 Sur 0 953.1 -1.4 29
2019-07-30 13:00:00 30.6 2 Sur 14 Sur 0 954 -0.6 31
2019-07-30 12:00:00 29.2 0 Calma 11 Nordeste 0 954.4 0.2 33
2019-07-30 11:00:00 26.8 0 Calma 3 Este 0 954.5 0.5 38
2019-07-30 10:00:00 22.9 0 Calma 0 Calma 0 954.6 1.3 45
2019-07-30 09:00:00 20.8 0 Calma -- -- 0 954.2 0.9 50
2019-07-30 08:00:00 18.1 0 Calma -- -- 0 954 0.8 56
2019-07-30 07:00:00 16.1 0 Calma -- -- 0 953.3 0.6 58
2019-07-30 06:00:00 16.5 0 Calma -- -- 0 953.3 0.8 55
2019-07-30 05:00:00 18.7 0 Calma 0 Calma 0 953.2 0.4 48
2019-07-30 04:00:00 18.4 0 Calma 0 Calma 0 952.7 0.2 49
2019-07-30 03:00:00 20.8 0 Calma 4 Oeste 0 952.5 0.3 43
2019-07-30 02:00:00 22.2 0 Calma 4 Oeste 0 952.8 0.6 42
2019-07-30 01:00:00 22.8 0 Calma 6 Sudoeste 0 952.5 1.1 40
2019-07-30 00:00:00 24.3 0 Calma 8 Sudoeste 0 952.2 1.2 39
2019-07-29 23:00:00 25.4 0 Calma 12 Oeste 0 952.2 1.5 38
2019-07-29 22:00:00 26.9 2 Oeste 17 Oeste 0 951.4 0.7 37
2019-07-29 21:00:00 28.5 4 Oeste 22 Noroeste 0 951 0.2 36
2019-07-29 20:00:00 29.6 5 Oeste 24 Oeste 0 950.7 -0.3 30
2019-07-29 19:00:00 31.8 6 Oeste 26 Sudoeste 0 950.7 -0.4 27
2019-07-29 18:00:00 32.6 7 Oeste 31 Sudoeste 0 950.8 -0.5 26
2019-07-29 17:00:00 32.8 10 Oeste 52 Oeste 0 951 -0.6 23
2019-07-29 16:00:00 32.9 7 Oeste 30 Sudoeste 0 951.1 -1 24
2019-07-29 15:00:00 33.2 6 Oeste 25 Oeste 0 951.3 -0.8 26
2019-07-29 14:00:00 31.7 14 Sudoeste 29 Sudoeste 0 951.6 0.1 24
2019-07-29 13:00:00 32.1 9 Sudoeste 38 Sudoeste 0 952.1 0.7 25
2019-07-29 12:00:00 29.6 9 Sudoeste 26 Sudoeste 0 952.1 0.7 31
2019-07-29 11:00:00 28.7 0 Calma 11 Sur 0 951.5 0.5 37
2019-07-29 10:00:00 26 0 Calma 4 Nordeste 0 951.4 0.9 47
2019-07-29 09:00:00 22.6 0 Calma -- -- 0 951.4 1.2 54
2019-07-29 08:00:00 20.2 0 Calma 5 Sudoeste 0 951 1.5 61
2019-07-29 07:00:00 17.4 0 Calma -- -- 0 950.5 0.7 65
2019-07-29 06:00:00 19.1 0 Calma -- -- 0 950.2 0.4 61
2019-07-29 05:00:00 19.7 0 Calma -- -- 0 949.5 -0.4 59
2019-07-29 04:00:00 20.6 0 Calma -- -- 0 949.8 -0.1 56
2019-07-29 03:00:00 21.6 0 Calma 3 Sudoeste 0 949.8 0 52
2019-07-29 02:00:00 22.9 0 Calma 3 Sudoeste 0 949.9 0.4 48
2019-07-29 01:00:00 23.9 0 Calma -- -- 0 949.9 0.8 45
2019-07-29 00:00:00 23.9 0 Calma 2 Sudoeste 0 949.8 1.2 43
2019-07-28 23:00:00 25.4 0 Calma 8 Oeste 0 949.5 1.8 40
2019-07-28 22:00:00 26.9 0 Calma 12 Oeste 0 949.1 1.1 37
2019-07-28 21:00:00 28.7 0 Calma 24 Oeste 0 948.6 0.3 35
2019-07-28 20:00:00 29.9 4 Oeste 17 Noroeste 0 947.7 -0.8 32
2019-07-28 19:00:00 31.3 2 Oeste 23 Sur 0 948 -1.2 32
2019-07-28 18:00:00 32 3 Sudoeste 19 Sudoeste 0 948.3 -1.5 30
2019-07-28 17:00:00 32.4 5 Este 17 Sudeste 0 948.5 -1.5 30
2019-07-28 16:00:00 31.8 5 Noroeste 37 Oeste 0 949.2 -1.2 30
2019-07-28 15:00:00 30.3 5 Este 17 Sudeste 0 949.8 -1.2 33
2019-07-28 14:00:00 29.2 3 Norte 21 Norte 0 950 -0.9 35
2019-07-28 13:00:00 31.3 0 Calma 15 Sudeste 0 950.4 -0.6 35
2019-07-28 12:00:00 28.5 4 Sudeste 17 Sudeste 0 951 0.1 39
2019-07-28 11:00:00 25.8 2 Sudeste 10 Sudeste 0 950.9 0.2 50
2019-07-28 10:00:00 24.2 0 Calma 0 Calma 0 951 0.8 58
2019-07-28 09:00:00 20.8 0 Calma 0 Calma 0 950.9 0.8 75
2019-07-28 08:00:00 17.8 0 Calma -- -- 0 950.7 0.8 83
2019-07-28 07:00:00 16.4 0 Calma -- -- 0 950.2 0.3 92
2019-07-28 06:00:00 16.8 0 Calma 0 Calma 0 950.1 -0.1 85
2019-07-28 05:00:00 18.3 0 Calma 0 Calma 0 949.9 -0.2 86
2019-07-28 04:00:00 17.9 0 Calma 5 Sudoeste 0 949.9 -0.4 87
2019-07-28 03:00:00 19.2 0 Calma 0 Calma 0 950.2 -0.1 85
2019-07-28 02:00:00 19.8 0 Calma -- -- 0 950.1 -0.1 77
2019-07-28 01:00:00 20.9 0 Calma 0 Calma 0 950.3 1.2 76
2019-07-28 00:00:00 20.8 0 Calma 7 Sudoeste 0 950.3 1.3 71
2019-07-27 23:00:00 21.7 0 Calma 8 Oeste 0 950.2 1.4 67
2019-07-26 12:00:00 27.3 7 Oeste 23 Oeste 0 953 0.6 56
2019-07-26 11:00:00 24.8 10 Sudoeste 23 Sudoeste 0 952.8 0.6 63
2019-07-26 10:00:00 23.5 0 Calma 15 Oeste 0 952.6 0.5 67
2019-07-26 09:00:00 22.8 0 Calma 14 Sudoeste 0 952.4 0.3 72
2019-07-26 08:00:00 21.9 0 Calma 9 Oeste 0 952.2 0 77
2019-07-26 07:00:00 21.7 0 Calma -- -- 0 952.1 -0.1 74
2019-07-26 06:00:00 23.1 0 Calma -- -- 0 952.1 0.7 70
2019-07-26 05:00:00 23.7 0 Calma 0 Calma 0 952.2 0.3 66
2019-07-26 04:00:00 24.6 0 Calma 10 Oeste 0 952.2 0.4 60
2019-07-26 03:00:00 25.8 0 Calma 9 Oeste 0 951.4 -0.6 48
2019-07-26 02:00:00 26.3 0 Calma 14 Sudoeste 0 951.9 0.2 46
2019-07-26 01:00:00 27.1 0 Calma 5 Oeste 0 951.8 0.5 43
2019-07-26 00:00:00 27.4 0 Calma 0 Calma 0 952 1 43
2019-07-25 23:00:00 28.5 0 Calma 9 Oeste 0 951.7 0.9 42
2019-07-25 22:00:00 29.8 2 Oeste 21 Oeste 0 951.3 0.7 39
2019-07-25 21:00:00 31.5 4 Oeste 18 Oeste 0 951 0.4 38
2019-07-25 20:00:00 33.6 8 Oeste 24 Oeste 0 950.8 -0.4 34
2019-07-25 19:00:00 36.1 4 Oeste 36 Sudoeste 0 950.6 -1 31
2019-07-25 18:00:00 35.3 8 Sudoeste 32 Sudoeste 0 950.6 -1.6 30
2019-07-25 17:00:00 37.9 5 Sur 30 Sudoeste 0 951.2 -1.4 31
2019-07-25 16:00:00 37.1 16 Sudoeste 35 Sudoeste 0 951.6 -1.6 30
2019-07-25 15:00:00 36.6 9 Sudoeste 33 Sur 0 952.2 -1.3 32
2019-07-25 14:00:00 36.3 13 Sur 32 Sudoeste 0 952.6 -1 34
2019-07-25 13:00:00 34.7 12 Sudoeste 30 Sur 0 953.2 -0.7 35
2019-07-25 12:00:00 34.4 13 Sur 25 Sudoeste 0 953.5 -0.3 35
2019-07-25 11:00:00 31.5 0 Calma 3 Nordeste 0 953.6 0.4 40
2019-07-25 10:00:00 28.9 0 Calma 0 Calma 0 953.9 1.1 43
2019-07-25 09:00:00 26.8 0 Calma -- -- 0 953.8 1.1 47
2019-07-25 08:00:00 23.7 0 Calma -- -- 0 953.2 0.6 52
2019-07-25 07:00:00 22.4 0 Calma -- -- 0 952.8 0.1 52
2019-07-25 06:00:00 24.3 0 Calma 10 Sudoeste 0 952.7 0 47
2019-07-25 05:00:00 25.3 4 Sudoeste 13 Sudoeste 0 952.6 0.1 46
2019-07-25 04:00:00 25.6 0 Calma 11 Sudoeste 0 952.7 0.4 45
2019-07-25 03:00:00 27.1 3 Sudoeste 10 Sudoeste 0 952.7 0.6 43
2019-07-25 02:00:00 27 0 Calma 10 Sudoeste 0 952.5 0.9 43
2019-07-25 01:00:00 29.2 4 Sudoeste 9 Sudoeste 0 952.3 1.1 42
2019-07-25 00:00:00 30.1 0 Calma 7 Sudoeste 0 952.1 1.3 40
2019-07-24 23:00:00 30.8 0 Calma 8 Sur 0 951.6 1.3 38
2019-07-24 22:00:00 32.6 0 Calma 8 Sudoeste 0 951.2 0.7 36
2019-07-24 21:00:00 33.6 0 Calma 19 Sudoeste 0 950.8 -0.1 36
2019-07-24 20:00:00 35.7 6 Sudoeste 23 Sudoeste 0 950.3 -1.3 30
2019-07-24 19:00:00 36.9 8 Sudoeste 21 Sudoeste 0 950.5 -1.2 31
2019-07-24 18:00:00 36.9 11 Sudoeste 23 Sudoeste 0 950.9 -1.5 34
2019-07-24 17:00:00 36.7 4 Sudoeste 35 Sudeste 0 951.6 -1.5 33
2019-07-24 16:00:00 37.8 6 Sudeste 20 Sur 0 951.7 -1.9 33
2019-07-24 15:00:00 38.6 10 Sur 23 Sur 0 952.4 -1.6 34
2019-07-24 14:00:00 36.7 0 Calma 22 Este 0 953.1 -1.1 37
2019-07-24 13:00:00 36.2 4 Nordeste 15 Sudeste 0 953.6 -0.8 37
2019-07-24 12:00:00 34.5 4 Este 14 Sudeste 0 954 -0.3 40
2019-07-24 11:00:00 31.5 0 Calma -- -- -- 954.2 -0.1 46
2019-07-24 10:00:00 28.4 0 Calma 0 Calma 0 954.4 0.6 54
2019-07-24 09:00:00 25.4 0 Calma -- -- 0 954.3 0.7 62
2019-07-24 08:00:00 22.4 0 Calma -- -- 0 954.3 0 69
2019-07-24 07:00:00 21 0 Calma -- -- 0 953.8 -0.4 71
2019-07-24 06:00:00 22.3 0 Calma -- -- 0 953.6 -0.9 69
2019-07-24 05:00:00 22.8 0 Calma 0 Calma 0 954.3 -0.5 66
2019-07-24 04:00:00 23.2 0 Calma 3 Sudeste 0 954.2 -0.5 63
2019-07-24 03:00:00 23.6 0 Calma 18 Sudeste 0 954.5 -0.8 59
2019-07-24 02:00:00 25.1 7 Sudeste 23 Sudeste 0 954.8 0.5 53
2019-07-24 01:00:00 26.5 10 Sudeste 31 Sudeste 0 954.7 2 48
2019-07-24 00:00:00 27.6 13 Este 27 Este 0 955.3 2.9 45